Página principal
METAR-TAF:

METAR-TAF

Aeroportos :

Aeroporto Internacional Rei Abdulaziz

Jidá, Arábia Saudita

latitude: 21-42N, longitude: 039-11E, altura: 15 m

Observação actual do tempo

O boletim foi feito há 45 minutos, às 12:00 UTC
Vento 14 kt de oes-sudoeste
Temperatura 36°C
Humidade 50%
Pressão 1001 hPa
Visibilidade 10 km ou mais
sem nuvens abaixo de 1500 metros e sem cumulonimbus

METAR: OEJN 181200Z 24014KT CAVOK 36/24 Q1001 NOSIG

Hora: 15:45 (12:45 UTC)

Previsão

O boletim foi feito há 1 hora e 45 minutos, às 11:00 UTC
Previsão válida de 18 às 12 UTC a 19 às 18 UTC
Vento 8 kt de noroeste com rajadas de 18 kt
Visibilidade 10 km ou mais
Poucas nuvensa uma altura de 4000 ft
Tornando-se
de 18 às 18 UTC a 18 às 20 UTC
Vento 3 kt com direcção variável

TAF: OEJN 181100Z 1812/1918 32008G18KT 9999 FEW040 BECMG 1818/1820 VRB03KT

Observações e previsões do tempo de mais de 4000 aeroportos (mensagens METAR e TAF).

As estações disponíveis são os pontos amarelos e vermelhos sobre o mapa.

Mova o rato sobre o mapa para ver o nome da estação.

Depois clique no ponto para visualizar as observações e previsões meteorológicas.

Para alterar o mapa : clique nos botões verdes com uma cruz preta para aumentar o zoom; no botão verde com uma pitada de zoom; ou nas setas verdes para mapas adjacentes.


METAR-TAF: